sensor_id;sensor_type;location;lat;lon;timestamp;P1;durP1;ratioP1;P2;durP2;ratioP2
59972;SDS011;55298;-36.624;-64.282;2023-07-31T00:02:01;19.17;;;10.75;;
59972;SDS011;55298;-36.624;-64.282;2023-07-31T00:04:29;19.27;;;11.75;;
59972;SDS011;55298;-36.624;-64.282;2023-07-31T00:06:57;18.08;;;11.80;;
59972;SDS011;55298;-36.624;-64.282;2023-07-31T00:09:25;20.67;;;12.32;;
59972;SDS011;55298;-36.624;-64.282;2023-07-31T00:11:54;23.33;;;12.18;;
59972;SDS011;55298;-36.624;-64.282;2023-07-31T00:14:22;21.13;;;12.50;;
59972;SDS011;55298;-36.624;-64.282;2023-07-31T00:16:51;19.00;;;12.05;;
59972;SDS011;55298;-36.624;-64.282;2023-07-31T00:19:19;24.17;;;12.10;;
59972;SDS011;55298;-36.624;-64.282;2023-07-31T00:21:47;26.20;;;13.70;;
59972;SDS011;55298;-36.624;-64.282;2023-07-31T00:24:15;17.80;;;11.70;;
59972;SDS011;55298;-36.624;-64.282;2023-07-31T00:26:43;21.88;;;12.77;;
59972;SDS011;55298;-36.624;-64.282;2023-07-31T00:29:13;25.48;;;13.82;;
59972;SDS011;55298;-36.624;-64.282;2023-07-31T00:31:40;30.63;;;14.82;;
59972;SDS011;55298;-36.624;-64.282;2023-07-31T00:34:08;23.42;;;14.13;;
59972;SDS011;55298;-36.624;-64.282;2023-07-31T00:36:36;22.95;;;13.80;;
59972;SDS011;55298;-36.624;-64.282;2023-07-31T00:39:03;26.13;;;14.77;;
59972;SDS011;55298;-36.624;-64.282;2023-07-31T00:41:31;28.55;;;14.38;;
59972;SDS011;55298;-36.624;-64.282;2023-07-31T00:43:59;23.58;;;14.25;;
59972;SDS011;55298;-36.624;-64.282;2023-07-31T00:46:32;25.77;;;14.70;;
59972;SDS011;55298;-36.624;-64.282;2023-07-31T00:49:00;34.85;;;16.77;;
59972;SDS011;55298;-36.624;-64.282;2023-07-31T00:51:28;22.85;;;14.30;;
59972;SDS011;55298;-36.624;-64.282;2023-07-31T00:53:57;29.52;;;15.93;;
59972;SDS011;55298;-36.624;-64.282;2023-07-31T00:56:26;28.42;;;15.88;;
59972;SDS011;55298;-36.624;-64.282;2023-07-31T00:58:57;27.88;;;17.02;;
59972;SDS011;55298;-36.624;-64.282;2023-07-31T01:01:25;31.75;;;17.77;;
59972;SDS011;55298;-36.624;-64.282;2023-07-31T01:03:52;37.13;;;17.63;;
59972;SDS011;55298;-36.624;-64.282;2023-07-31T01:06:25;29.67;;;16.48;;
59972;SDS011;55298;-36.624;-64.282;2023-07-31T01:09:08;29.50;;;16.63;;
59972;SDS011;55298;-36.624;-64.282;2023-07-31T01:12:03;31.13;;;15.15;;
59972;SDS011;55298;-36.624;-64.282;2023-07-31T01:14:33;22.90;;;14.15;;
59972;SDS011;55298;-36.624;-64.282;2023-07-31T01:17:01;18.60;;;13.70;;
59972;SDS011;55298;-36.624;-64.282;2023-07-31T01:19:28;25.60;;;15.07;;
59972;SDS011;55298;-36.624;-64.282;2023-07-31T01:22:12;28.83;;;15.45;;
59972;SDS011;55298;-36.624;-64.282;2023-07-31T01:24:55;26.15;;;13.23;;
59972;SDS011;55298;-36.624;-64.282;2023-07-31T01:27:37;21.45;;;12.48;;
59972;SDS011;55298;-36.624;-64.282;2023-07-31T01:30:27;22.15;;;11.90;;
59972;SDS011;55298;-36.624;-64.282;2023-07-31T01:33:02;18.75;;;10.98;;
59972;SDS011;55298;-36.624;-64.282;2023-07-31T01:35:34;16.27;;;10.50;;
59972;SDS011;55298;-36.624;-64.282;2023-07-31T01:38:03;17.40;;;10.23;;
59972;SDS011;55298;-36.624;-64.282;2023-07-31T01:40:31;20.60;;;11.00;;
59972;SDS011;55298;-36.624;-64.282;2023-07-31T01:43:03;19.75;;;12.15;;
59972;SDS011;55298;-36.624;-64.282;2023-07-31T01:45:31;20.15;;;12.23;;
59972;SDS011;55298;-36.624;-64.282;2023-07-31T01:48:00;26.98;;;12.18;;
59972;SDS011;55298;-36.624;-64.282;2023-07-31T01:50:27;19.35;;;13.00;;
59972;SDS011;55298;-36.624;-64.282;2023-07-31T01:52:55;17.98;;;11.63;;
59972;SDS011;55298;-36.624;-64.282;2023-07-31T01:55:23;17.95;;;11.10;;
59972;SDS011;55298;-36.624;-64.282;2023-07-31T01:57:51;23.90;;;12.65;;
59972;SDS011;55298;-36.624;-64.282;2023-07-31T02:00:19;19.27;;;12.00;;
59972;SDS011;55298;-36.624;-64.282;2023-07-31T02:02:46;25.10;;;12.75;;
59972;SDS011;55298;-36.624;-64.282;2023-07-31T02:05:14;21.67;;;13.30;;
59972;SDS011;55298;-36.624;-64.282;2023-07-31T02:07:42;20.35;;;13.25;;
59972;SDS011;55298;-36.624;-64.282;2023-07-31T02:10:10;21.90;;;12.45;;
59972;SDS011;55298;-36.624;-64.282;2023-07-31T02:12:38;20.88;;;11.27;;
59972;SDS011;55298;-36.624;-64.282;2023-07-31T02:15:07;17.08;;;10.52;;
59972;SDS011;55298;-36.624;-64.282;2023-07-31T02:17:35;16.02;;;9.98;;
59972;SDS011;55298;-36.624;-64.282;2023-07-31T02:20:05;23.95;;;11.27;;
59972;SDS011;55298;-36.624;-64.282;2023-07-31T02:22:36;18.48;;;12.25;;
59972;SDS011;55298;-36.624;-64.282;2023-07-31T02:25:09;17.98;;;11.32;;
59972;SDS011;55298;-36.624;-64.282;2023-07-31T02:27:36;16.10;;;10.40;;
59972;SDS011;55298;-36.624;-64.282;2023-07-31T02:30:04;13.25;;;9.30;;
59972;SDS011;55298;-36.624;-64.282;2023-07-31T02:32:32;21.30;;;9.40;;
59972;SDS011;55298;-36.624;-64.282;2023-07-31T02:35:00;12.88;;;8.00;;
59972;SDS011;55298;-36.624;-64.282;2023-07-31T02:37:28;15.50;;;8.20;;
59972;SDS011;55298;-36.624;-64.282;2023-07-31T02:39:56;17.20;;;9.00;;
59972;SDS011;55298;-36.624;-64.282;2023-07-31T02:42:24;12.18;;;8.70;;
59972;SDS011;55298;-36.624;-64.282;2023-07-31T02:44:52;16.75;;;8.57;;
59972;SDS011;55298;-36.624;-64.282;2023-07-31T02:47:22;16.55;;;9.00;;
59972;SDS011;55298;-36.624;-64.282;2023-07-31T02:49:50;16.38;;;7.40;;
59972;SDS011;55298;-36.624;-64.282;2023-07-31T02:52:18;10.23;;;7.25;;
59972;SDS011;55298;-36.624;-64.282;2023-07-31T02:54:46;16.00;;;7.30;;
59972;SDS011;55298;-36.624;-64.282;2023-07-31T02:57:14;11.73;;;6.82;;
59972;SDS011;55298;-36.624;-64.282;2023-07-31T02:59:42;14.57;;;7.85;;
59972;SDS011;55298;-36.624;-64.282;2023-07-31T03:02:10;18.92;;;8.70;;
59972;SDS011;55298;-36.624;-64.282;2023-07-31T03:04:38;14.23;;;7.88;;
59972;SDS011;55298;-36.624;-64.282;2023-07-31T03:07:06;11.40;;;7.78;;
59972;SDS011;55298;-36.624;-64.282;2023-07-31T03:09:34;10.48;;;6.95;;
59972;SDS011;55298;-36.624;-64.282;2023-07-31T03:12:02;8.57;;;6.85;;
59972;SDS011;55298;-36.624;-64.282;2023-07-31T03:14:30;9.65;;;8.50;;
59972;SDS011;55298;-36.624;-64.282;2023-07-31T03:16:57;20.45;;;10.02;;
59972;SDS011;55298;-36.624;-64.282;2023-07-31T03:19:25;17.58;;;11.00;;
59972;SDS011;55298;-36.624;-64.282;2023-07-31T03:21:53;23.42;;;15.00;;
59972;SDS011;55298;-36.624;-64.282;2023-07-31T03:24:21;20.83;;;12.00;;
59972;SDS011;55298;-36.624;-64.282;2023-07-31T03:26:48;19.10;;;11.75;;
59972;SDS011;55298;-36.624;-64.282;2023-07-31T03:29:17;13.43;;;10.70;;
59972;SDS011;55298;-36.624;-64.282;2023-07-31T03:31:44;15.15;;;11.75;;
59972;SDS011;55298;-36.624;-64.282;2023-07-31T03:34:12;14.70;;;11.45;;
59972;SDS011;55298;-36.624;-64.282;2023-07-31T03:36:40;15.60;;;11.07;;
59972;SDS011;55298;-36.624;-64.282;2023-07-31T03:39:08;19.38;;;11.55;;
59972;SDS011;55298;-36.624;-64.282;2023-07-31T03:41:36;23.35;;;11.77;;
59972;SDS011;55298;-36.624;-64.282;2023-07-31T03:44:03;19.70;;;11.88;;
59972;SDS011;55298;-36.624;-64.282;2023-07-31T03:46:31;24.85;;;12.48;;
59972;SDS011;55298;-36.624;-64.282;2023-07-31T03:49:00;27.17;;;13.05;;
59972;SDS011;55298;-36.624;-64.282;2023-07-31T03:51:28;15.68;;;11.55;;
59972;SDS011;55298;-36.624;-64.282;2023-07-31T03:53:56;23.02;;;13.95;;
59972;SDS011;55298;-36.624;-64.282;2023-07-31T03:56:24;35.92;;;15.02;;
59972;SDS011;55298;-36.624;-64.282;2023-07-31T03:58:52;26.90;;;12.75;;
59972;SDS011;55298;-36.624;-64.282;2023-07-31T04:01:20;21.48;;;12.45;;
59972;SDS011;55298;-36.624;-64.282;2023-07-31T04:03:48;22.98;;;13.90;;
59972;SDS011;55298;-36.624;-64.282;2023-07-31T04:06:17;19.08;;;13.07;;
59972;SDS011;55298;-36.624;-64.282;2023-07-31T04:08:45;18.50;;;11.85;;
59972;SDS011;55298;-36.624;-64.282;2023-07-31T04:11:13;18.52;;;11.63;;
59972;SDS011;55298;-36.624;-64.282;2023-07-31T04:13:41;11.98;;;8.93;;
59972;SDS011;55298;-36.624;-64.282;2023-07-31T04:16:09;12.00;;;8.70;;
59972;SDS011;55298;-36.624;-64.282;2023-07-31T04:18:37;8.63;;;7.65;;
59972;SDS011;55298;-36.624;-64.282;2023-07-31T04:21:05;10.13;;;8.05;;
59972;SDS011;55298;-36.624;-64.282;2023-07-31T04:23:33;9.85;;;6.63;;
59972;SDS011;55298;-36.624;-64.282;2023-07-31T04:26:00;10.82;;;6.40;;
59972;SDS011;55298;-36.624;-64.282;2023-07-31T04:28:28;8.27;;;5.88;;
59972;SDS011;55298;-36.624;-64.282;2023-07-31T04:30:57;6.80;;;6.07;;
59972;SDS011;55298;-36.624;-64.282;2023-07-31T04:33:25;6.97;;;5.70;;
59972;SDS011;55298;-36.624;-64.282;2023-07-31T04:35:53;9.85;;;6.05;;
59972;SDS011;55298;-36.624;-64.282;2023-07-31T04:38:21;7.03;;;5.47;;
59972;SDS011;55298;-36.624;-64.282;2023-07-31T04:40:49;8.68;;;5.65;;
59972;SDS011;55298;-36.624;-64.282;2023-07-31T04:43:18;10.93;;;7.38;;
59972;SDS011;55298;-36.624;-64.282;2023-07-31T04:45:49;7.75;;;6.50;;
59972;SDS011;55298;-36.624;-64.282;2023-07-31T04:48:17;11.23;;;7.03;;
59972;SDS011;55298;-36.624;-64.282;2023-07-31T04:50:44;14.10;;;7.78;;
59972;SDS011;55298;-36.624;-64.282;2023-07-31T04:53:12;8.88;;;6.40;;
59972;SDS011;55298;-36.624;-64.282;2023-07-31T04:55:40;9.18;;;6.63;;
59972;SDS011;55298;-36.624;-64.282;2023-07-31T04:58:08;9.05;;;7.30;;
59972;SDS011;55298;-36.624;-64.282;2023-07-31T05:00:36;10.13;;;9.07;;
59972;SDS011;55298;-36.624;-64.282;2023-07-31T05:03:03;13.07;;;8.63;;
59972;SDS011;55298;-36.624;-64.282;2023-07-31T05:05:31;9.57;;;7.82;;
59972;SDS011;55298;-36.624;-64.282;2023-07-31T05:07:59;17.85;;;7.57;;
59972;SDS011;55298;-36.624;-64.282;2023-07-31T05:10:27;11.48;;;8.52;;
59972;SDS011;55298;-36.624;-64.282;2023-07-31T05:12:58;12.13;;;8.88;;
59972;SDS011;55298;-36.624;-64.282;2023-07-31T05:15:26;15.75;;;9.15;;
59972;SDS011;55298;-36.624;-64.282;2023-07-31T05:17:54;12.88;;;9.05;;
59972;SDS011;55298;-36.624;-64.282;2023-07-31T05:20:22;12.50;;;9.55;;
59972;SDS011;55298;-36.624;-64.282;2023-07-31T05:22:50;11.32;;;8.77;;
59972;SDS011;55298;-36.624;-64.282;2023-07-31T05:25:18;22.80;;;10.60;;
59972;SDS011;55298;-36.624;-64.282;2023-07-31T05:27:46;15.52;;;8.63;;
59972;SDS011;55298;-36.624;-64.282;2023-07-31T05:30:13;12.18;;;9.35;;
59972;SDS011;55298;-36.624;-64.282;2023-07-31T05:32:41;9.55;;;7.47;;
59972;SDS011;55298;-36.624;-64.282;2023-07-31T05:35:11;8.85;;;7.50;;
59972;SDS011;55298;-36.624;-64.282;2023-07-31T05:37:39;9.90;;;7.00;;
59972;SDS011;55298;-36.624;-64.282;2023-07-31T05:40:07;11.10;;;7.55;;
59972;SDS011;55298;-36.624;-64.282;2023-07-31T05:42:35;10.80;;;7.85;;
59972;SDS011;55298;-36.624;-64.282;2023-07-31T05:45:05;13.32;;;8.05;;
59972;SDS011;55298;-36.624;-64.282;2023-07-31T05:47:33;10.20;;;7.70;;
59972;SDS011;55298;-36.624;-64.282;2023-07-31T05:50:01;10.02;;;6.95;;
59972;SDS011;55298;-36.624;-64.282;2023-07-31T05:52:29;10.68;;;6.68;;
59972;SDS011;55298;-36.624;-64.282;2023-07-31T05:54:57;8.20;;;7.40;;
59972;SDS011;55298;-36.624;-64.282;2023-07-31T05:57:25;13.50;;;7.43;;
59972;SDS011;55298;-36.624;-64.282;2023-07-31T05:59:53;14.23;;;7.70;;
59972;SDS011;55298;-36.624;-64.282;2023-07-31T06:02:20;10.70;;;7.93;;
59972;SDS011;55298;-36.624;-64.282;2023-07-31T06:04:48;8.43;;;7.07;;
59972;SDS011;55298;-36.624;-64.282;2023-07-31T06:07:16;12.55;;;7.70;;
59972;SDS011;55298;-36.624;-64.282;2023-07-31T06:09:44;10.68;;;7.80;;
59972;SDS011;55298;-36.624;-64.282;2023-07-31T06:12:13;13.60;;;7.63;;
59972;SDS011;55298;-36.624;-64.282;2023-07-31T06:14:43;9.07;;;8.15;;
59972;SDS011;55298;-36.624;-64.282;2023-07-31T06:17:11;11.18;;;8.90;;
59972;SDS011;55298;-36.624;-64.282;2023-07-31T06:19:39;9.40;;;8.15;;
59972;SDS011;55298;-36.624;-64.282;2023-07-31T06:22:07;12.15;;;8.70;;
59972;SDS011;55298;-36.624;-64.282;2023-07-31T06:24:34;10.82;;;8.82;;
59972;SDS011;55298;-36.624;-64.282;2023-07-31T06:27:02;15.80;;;10.45;;
59972;SDS011;55298;-36.624;-64.282;2023-07-31T06:29:31;16.10;;;13.50;;
59972;SDS011;55298;-36.624;-64.282;2023-07-31T06:31:59;19.08;;;13.20;;
59972;SDS011;55298;-36.624;-64.282;2023-07-31T06:34:27;28.02;;;15.43;;
59972;SDS011;55298;-36.624;-64.282;2023-07-31T06:36:56;15.10;;;12.13;;
59972;SDS011;55298;-36.624;-64.282;2023-07-31T06:39:23;16.73;;;12.85;;
59972;SDS011;55298;-36.624;-64.282;2023-07-31T06:41:51;14.85;;;11.10;;
59972;SDS011;55298;-36.624;-64.282;2023-07-31T06:44:19;12.02;;;10.40;;
59972;SDS011;55298;-36.624;-64.282;2023-07-31T06:46:47;10.90;;;9.68;;
59972;SDS011;55298;-36.624;-64.282;2023-07-31T06:49:14;12.23;;;9.25;;
59972;SDS011;55298;-36.624;-64.282;2023-07-31T06:51:42;9.68;;;7.55;;
59972;SDS011;55298;-36.624;-64.282;2023-07-31T06:54:10;9.35;;;7.38;;
59972;SDS011;55298;-36.624;-64.282;2023-07-31T06:56:38;9.73;;;8.15;;
59972;SDS011;55298;-36.624;-64.282;2023-07-31T06:59:06;8.60;;;7.18;;
59972;SDS011;55298;-36.624;-64.282;2023-07-31T07:01:34;7.88;;;7.28;;
59972;SDS011;55298;-36.624;-64.282;2023-07-31T07:04:01;8.52;;;6.22;;
59972;SDS011;55298;-36.624;-64.282;2023-07-31T07:06:29;5.95;;;5.45;;
59972;SDS011;55298;-36.624;-64.282;2023-07-31T07:08:57;5.75;;;5.00;;
59972;SDS011;55298;-36.624;-64.282;2023-07-31T07:11:25;5.22;;;4.75;;
59972;SDS011;55298;-36.624;-64.282;2023-07-31T07:13:53;5.97;;;5.32;;
59972;SDS011;55298;-36.624;-64.282;2023-07-31T07:16:20;4.95;;;4.60;;
59972;SDS011;55298;-36.624;-64.282;2023-07-31T07:18:48;5.60;;;5.10;;
59972;SDS011;55298;-36.624;-64.282;2023-07-31T07:21:16;6.40;;;5.78;;
59972;SDS011;55298;-36.624;-64.282;2023-07-31T07:23:44;6.65;;;5.93;;
59972;SDS011;55298;-36.624;-64.282;2023-07-31T07:26:11;6.53;;;5.93;;
59972;SDS011;55298;-36.624;-64.282;2023-07-31T07:28:39;6.95;;;6.20;;
59972;SDS011;55298;-36.624;-64.282;2023-07-31T07:31:07;7.55;;;5.88;;
59972;SDS011;55298;-36.624;-64.282;2023-07-31T07:33:35;7.18;;;5.38;;
59972;SDS011;55298;-36.624;-64.282;2023-07-31T07:36:03;7.55;;;5.38;;
59972;SDS011;55298;-36.624;-64.282;2023-07-31T07:38:35;6.10;;;5.50;;
59972;SDS011;55298;-36.624;-64.282;2023-07-31T07:41:04;6.10;;;5.50;;
59972;SDS011;55298;-36.624;-64.282;2023-07-31T07:43:32;6.90;;;5.60;;
59972;SDS011;55298;-36.624;-64.282;2023-07-31T07:46:00;6.93;;;5.53;;
59972;SDS011;55298;-36.624;-64.282;2023-07-31T07:48:27;11.55;;;5.43;;
59972;SDS011;55298;-36.624;-64.282;2023-07-31T07:50:55;8.73;;;5.70;;
59972;SDS011;55298;-36.624;-64.282;2023-07-31T07:53:23;15.60;;;6.68;;
59972;SDS011;55298;-36.624;-64.282;2023-07-31T07:55:51;9.82;;;6.00;;
59972;SDS011;55298;-36.624;-64.282;2023-07-31T07:58:18;9.10;;;6.50;;
59972;SDS011;55298;-36.624;-64.282;2023-07-31T08:00:50;6.03;;;5.32;;
59972;SDS011;55298;-36.624;-64.282;2023-07-31T08:03:18;11.02;;;6.88;;
59972;SDS011;55298;-36.624;-64.282;2023-07-31T08:05:46;8.48;;;6.20;;
59972;SDS011;55298;-36.624;-64.282;2023-07-31T08:08:14;7.78;;;6.43;;
59972;SDS011;55298;-36.624;-64.282;2023-07-31T08:10:43;12.10;;;6.32;;
59972;SDS011;55298;-36.624;-64.282;2023-07-31T08:13:11;7.40;;;6.50;;
59972;SDS011;55298;-36.624;-64.282;2023-07-31T08:15:42;6.88;;;6.30;;
59972;SDS011;55298;-36.624;-64.282;2023-07-31T08:18:10;7.00;;;6.38;;
59972;SDS011;55298;-36.624;-64.282;2023-07-31T08:20:38;7.90;;;6.90;;
59972;SDS011;55298;-36.624;-64.282;2023-07-31T08:23:06;7.70;;;7.00;;
59972;SDS011;55298;-36.624;-64.282;2023-07-31T08:25:35;7.43;;;5.97;;
59972;SDS011;55298;-36.624;-64.282;2023-07-31T08:28:03;7.57;;;6.18;;
59972;SDS011;55298;-36.624;-64.282;2023-07-31T08:30:32;6.65;;;6.07;;
59972;SDS011;55298;-36.624;-64.282;2023-07-31T08:32:59;9.20;;;7.72;;
59972;SDS011;55298;-36.624;-64.282;2023-07-31T08:35:28;16.23;;;7.65;;
59972;SDS011;55298;-36.624;-64.282;2023-07-31T08:37:56;14.45;;;8.13;;
59972;SDS011;55298;-36.624;-64.282;2023-07-31T08:40:23;13.27;;;7.22;;
59972;SDS011;55298;-36.624;-64.282;2023-07-31T08:42:53;9.02;;;6.88;;
59972;SDS011;55298;-36.624;-64.282;2023-07-31T08:45:24;13.63;;;8.73;;
59972;SDS011;55298;-36.624;-64.282;2023-07-31T08:47:52;8.52;;;7.40;;
59972;SDS011;55298;-36.624;-64.282;2023-07-31T08:50:22;9.40;;;7.00;;
59972;SDS011;55298;-36.624;-64.282;2023-07-31T08:52:51;7.10;;;6.38;;
59972;SDS011;55298;-36.624;-64.282;2023-07-31T08:55:19;19.60;;;14.68;;
59972;SDS011;55298;-36.624;-64.282;2023-07-31T08:57:51;12.40;;;6.60;;
59972;SDS011;55298;-36.624;-64.282;2023-07-31T09:00:19;8.80;;;6.95;;
59972;SDS011;55298;-36.624;-64.282;2023-07-31T09:05:30;7.45;;;6.70;;
59972;SDS011;55298;-36.624;-64.282;2023-07-31T09:07:59;11.02;;;6.93;;
59972;SDS011;55298;-36.624;-64.282;2023-07-31T09:10:28;12.55;;;7.05;;
59972;SDS011;55298;-36.624;-64.282;2023-07-31T09:12:56;13.38;;;7.30;;
59972;SDS011;55298;-36.624;-64.282;2023-07-31T09:15:25;9.95;;;7.38;;
59972;SDS011;55298;-36.624;-64.282;2023-07-31T09:18:01;8.23;;;7.43;;
59972;SDS011;55298;-36.624;-64.282;2023-07-31T09:20:31;10.57;;;8.32;;
59972;SDS011;55298;-36.624;-64.282;2023-07-31T09:23:04;11.88;;;9.77;;
59972;SDS011;55298;-36.624;-64.282;2023-07-31T09:25:35;15.55;;;9.32;;
59972;SDS011;55298;-36.624;-64.282;2023-07-31T09:28:04;11.25;;;9.00;;
59972;SDS011;55298;-36.624;-64.282;2023-07-31T09:33:14;10.40;;;7.50;;
59972;SDS011;55298;-36.624;-64.282;2023-07-31T09:35:42;8.85;;;8.00;;
59972;SDS011;55298;-36.624;-64.282;2023-07-31T09:38:11;10.23;;;8.18;;
59972;SDS011;55298;-36.624;-64.282;2023-07-31T09:40:41;11.30;;;6.45;;
59972;SDS011;55298;-36.624;-64.282;2023-07-31T09:43:10;7.43;;;6.18;;
59972;SDS011;55298;-36.624;-64.282;2023-07-31T09:45:43;7.18;;;6.47;;
59972;SDS011;55298;-36.624;-64.282;2023-07-31T09:48:13;8.43;;;6.10;;
59972;SDS011;55298;-36.624;-64.282;2023-07-31T09:50:43;6.93;;;6.00;;
59972;SDS011;55298;-36.624;-64.282;2023-07-31T09:53:13;6.13;;;5.63;;
59972;SDS011;55298;-36.624;-64.282;2023-07-31T09:55:42;8.52;;;6.10;;
59972;SDS011;55298;-36.624;-64.282;2023-07-31T09:58:11;7.18;;;6.07;;
59972;SDS011;55298;-36.624;-64.282;2023-07-31T10:00:40;7.22;;;6.35;;
59972;SDS011;55298;-36.624;-64.282;2023-07-31T10:03:08;9.38;;;6.38;;
59972;SDS011;55298;-36.624;-64.282;2023-07-31T10:05:40;7.13;;;4.80;;
59972;SDS011;55298;-36.624;-64.282;2023-07-31T10:08:13;7.25;;;5.15;;
59972;SDS011;55298;-36.624;-64.282;2023-07-31T10:10:44;10.85;;;6.82;;
59972;SDS011;55298;-36.624;-64.282;2023-07-31T10:13:18;6.93;;;6.07;;
59972;SDS011;55298;-36.624;-64.282;2023-07-31T10:15:48;7.32;;;6.63;;
59972;SDS011;55298;-36.624;-64.282;2023-07-31T10:18:20;11.68;;;7.25;;
59972;SDS011;55298;-36.624;-64.282;2023-07-31T10:20:47;12.50;;;8.05;;
59972;SDS011;55298;-36.624;-64.282;2023-07-31T10:23:16;15.07;;;8.75;;
59972;SDS011;55298;-36.624;-64.282;2023-07-31T10:25:44;21.48;;;9.20;;
59972;SDS011;55298;-36.624;-64.282;2023-07-31T10:28:13;21.60;;;11.80;;
59972;SDS011;55298;-36.624;-64.282;2023-07-31T10:30:44;15.27;;;10.13;;
59972;SDS011;55298;-36.624;-64.282;2023-07-31T10:33:12;17.40;;;11.18;;
59972;SDS011;55298;-36.624;-64.282;2023-07-31T10:35:44;11.25;;;9.35;;
59972;SDS011;55298;-36.624;-64.282;2023-07-31T10:38:15;16.90;;;9.15;;
59972;SDS011;55298;-36.624;-64.282;2023-07-31T10:40:46;14.70;;;9.48;;
59972;SDS011;55298;-36.624;-64.282;2023-07-31T10:52:03;12.73;;;9.25;;
59972;SDS011;55298;-36.624;-64.282;2023-07-31T10:54:37;12.10;;;9.02;;
59972;SDS011;55298;-36.624;-64.282;2023-07-31T10:59:51;13.00;;;9.05;;
59972;SDS011;55298;-36.624;-64.282;2023-07-31T11:02:41;12.55;;;8.13;;
59972;SDS011;55298;-36.624;-64.282;2023-07-31T11:08:21;9.88;;;7.07;;
59972;SDS011;55298;-36.624;-64.282;2023-07-31T11:16:39;12.65;;;6.55;;
59972;SDS011;55298;-36.624;-64.282;2023-07-31T11:19:37;6.60;;;5.65;;
59972;SDS011;55298;-36.624;-64.282;2023-07-31T11:22:19;6.20;;;5.30;;
59972;SDS011;55298;-36.624;-64.282;2023-07-31T11:25:03;5.82;;;5.05;;
59972;SDS011;55298;-36.624;-64.282;2023-07-31T11:27:48;5.43;;;4.75;;
59972;SDS011;55298;-36.624;-64.282;2023-07-31T11:30:19;5.97;;;4.82;;
59972;SDS011;55298;-36.624;-64.282;2023-07-31T11:32:50;4.63;;;4.32;;
59972;SDS011;55298;-36.624;-64.282;2023-07-31T11:35:22;5.65;;;5.15;;
59972;SDS011;55298;-36.624;-64.282;2023-07-31T11:37:52;5.82;;;5.32;;
59972;SDS011;55298;-36.624;-64.282;2023-07-31T11:40:23;7.93;;;5.18;;
59972;SDS011;55298;-36.624;-64.282;2023-07-31T11:43:04;8.63;;;4.93;;
59972;SDS011;55298;-36.624;-64.282;2023-07-31T11:48:48;6.93;;;4.38;;
59972;SDS011;55298;-36.624;-64.282;2023-07-31T11:51:16;5.28;;;4.78;;
59972;SDS011;55298;-36.624;-64.282;2023-07-31T11:54:16;6.82;;;4.60;;
59972;SDS011;55298;-36.624;-64.282;2023-07-31T11:56:49;5.60;;;4.50;;
59972;SDS011;55298;-36.624;-64.282;2023-07-31T12:00:12;15.20;;;4.80;;
59972;SDS011;55298;-36.624;-64.282;2023-07-31T12:02:41;8.18;;;4.72;;
59972;SDS011;55298;-36.624;-64.282;2023-07-31T12:05:11;8.95;;;4.72;;
59972;SDS011;55298;-36.624;-64.282;2023-07-31T12:07:45;7.57;;;5.00;;
59972;SDS011;55298;-36.624;-64.282;2023-07-31T12:15:54;10.90;;;5.30;;
59972;SDS011;55298;-36.624;-64.282;2023-07-31T12:18:26;6.05;;;5.53;;
59972;SDS011;55298;-36.624;-64.282;2023-07-31T12:20:57;12.02;;;6.50;;
59972;SDS011;55298;-36.624;-64.282;2023-07-31T12:23:28;12.13;;;5.32;;
59972;SDS011;55298;-36.624;-64.282;2023-07-31T12:26:01;13.00;;;6.32;;
59972;SDS011;55298;-36.624;-64.282;2023-07-31T12:28:37;10.80;;;5.95;;
59972;SDS011;55298;-36.624;-64.282;2023-07-31T12:31:15;17.48;;;6.30;;
59972;SDS011;55298;-36.624;-64.282;2023-07-31T12:33:50;15.02;;;6.15;;
59972;SDS011;55298;-36.624;-64.282;2023-07-31T12:36:20;13.45;;;5.72;;
59972;SDS011;55298;-36.624;-64.282;2023-07-31T12:38:50;14.20;;;5.38;;
59972;SDS011;55298;-36.624;-64.282;2023-07-31T12:41:19;15.15;;;7.25;;
59972;SDS011;55298;-36.624;-64.282;2023-07-31T12:43:47;18.33;;;6.78;;
59972;SDS011;55298;-36.624;-64.282;2023-07-31T12:46:15;13.65;;;7.20;;
59972;SDS011;55298;-36.624;-64.282;2023-07-31T12:48:43;20.20;;;7.43;;
59972;SDS011;55298;-36.624;-64.282;2023-07-31T12:51:14;17.70;;;7.55;;
59972;SDS011;55298;-36.624;-64.282;2023-07-31T12:53:46;16.63;;;7.10;;
59972;SDS011;55298;-36.624;-64.282;2023-07-31T12:56:17;19.95;;;6.88;;
59972;SDS011;55298;-36.624;-64.282;2023-07-31T12:58:47;17.70;;;6.93;;
59972;SDS011;55298;-36.624;-64.282;2023-07-31T13:01:15;17.88;;;6.97;;
59972;SDS011;55298;-36.624;-64.282;2023-07-31T13:03:43;16.30;;;6.68;;
59972;SDS011;55298;-36.624;-64.282;2023-07-31T13:06:11;18.30;;;6.85;;
59972;SDS011;55298;-36.624;-64.282;2023-07-31T13:08:40;20.05;;;7.43;;
59972;SDS011;55298;-36.624;-64.282;2023-07-31T13:13:35;14.38;;;6.13;;
59972;SDS011;55298;-36.624;-64.282;2023-07-31T13:16:04;17.90;;;6.22;;
59972;SDS011;55298;-36.624;-64.282;2023-07-31T13:18:35;17.08;;;6.78;;
59972;SDS011;55298;-36.624;-64.282;2023-07-31T13:21:05;13.57;;;6.55;;
59972;SDS011;55298;-36.624;-64.282;2023-07-31T13:23:51;16.08;;;6.18;;
59972;SDS011;55298;-36.624;-64.282;2023-07-31T13:26:21;20.73;;;7.10;;
59972;SDS011;55298;-36.624;-64.282;2023-07-31T13:28:55;20.60;;;6.88;;
59972;SDS011;55298;-36.624;-64.282;2023-07-31T13:31:25;16.35;;;6.45;;
59972;SDS011;55298;-36.624;-64.282;2023-07-31T13:33:52;14.15;;;6.32;;
59972;SDS011;55298;-36.624;-64.282;2023-07-31T13:36:20;17.23;;;6.05;;
59972;SDS011;55298;-36.624;-64.282;2023-07-31T13:38:51;17.75;;;6.47;;
59972;SDS011;55298;-36.624;-64.282;2023-07-31T13:41:20;13.93;;;5.80;;
59972;SDS011;55298;-36.624;-64.282;2023-07-31T13:43:47;20.88;;;7.20;;
59972;SDS011;55298;-36.624;-64.282;2023-07-31T13:46:15;18.00;;;6.90;;
59972;SDS011;55298;-36.624;-64.282;2023-07-31T13:48:46;18.10;;;6.50;;
59972;SDS011;55298;-36.624;-64.282;2023-07-31T13:51:14;11.80;;;6.57;;
59972;SDS011;55298;-36.624;-64.282;2023-07-31T13:53:43;14.60;;;5.57;;
59972;SDS011;55298;-36.624;-64.282;2023-07-31T13:56:17;10.93;;;5.50;;
59972;SDS011;55298;-36.624;-64.282;2023-07-31T13:58:45;15.82;;;7.43;;
59972;SDS011;55298;-36.624;-64.282;2023-07-31T14:01:15;13.50;;;5.95;;
59972;SDS011;55298;-36.624;-64.282;2023-07-31T14:03:43;14.85;;;6.57;;
59972;SDS011;55298;-36.624;-64.282;2023-07-31T14:06:11;21.02;;;5.60;;
59972;SDS011;55298;-36.624;-64.282;2023-07-31T14:08:39;10.07;;;5.90;;
59972;SDS011;55298;-36.624;-64.282;2023-07-31T14:11:08;13.32;;;5.97;;
59972;SDS011;55298;-36.624;-64.282;2023-07-31T14:13:38;16.02;;;6.25;;
59972;SDS011;55298;-36.624;-64.282;2023-07-31T14:16:31;12.18;;;6.05;;
59972;SDS011;55298;-36.624;-64.282;2023-07-31T14:18:59;12.63;;;6.60;;
59972;SDS011;55298;-36.624;-64.282;2023-07-31T14:21:27;15.63;;;7.38;;
59972;SDS011;55298;-36.624;-64.282;2023-07-31T14:23:55;12.23;;;6.68;;
59972;SDS011;55298;-36.624;-64.282;2023-07-31T14:26:24;13.20;;;6.63;;
59972;SDS011;55298;-36.624;-64.282;2023-07-31T14:28:52;14.70;;;7.72;;
59972;SDS011;55298;-36.624;-64.282;2023-07-31T14:31:20;8.90;;;6.15;;
59972;SDS011;55298;-36.624;-64.282;2023-07-31T14:33:48;14.60;;;6.35;;
59972;SDS011;55298;-36.624;-64.282;2023-07-31T14:36:17;15.00;;;7.00;;
59972;SDS011;55298;-36.624;-64.282;2023-07-31T14:38:49;13.57;;;7.72;;
59972;SDS011;55298;-36.624;-64.282;2023-07-31T14:41:18;10.35;;;6.57;;
59972;SDS011;55298;-36.624;-64.282;2023-07-31T14:43:46;14.95;;;7.30;;
59972;SDS011;55298;-36.624;-64.282;2023-07-31T14:46:23;7.70;;;6.28;;
59972;SDS011;55298;-36.624;-64.282;2023-07-31T14:48:54;15.27;;;6.68;;